Rio, IL (61472)

3:13 PM CDT on September 01, 2014 (GMT -0500)
East Burch St | Change Station
CLOSE
Current Station
Personal Weather Station
Location: Wataga, IL
Elevation: 840 ft
Nearby Weather Stations

Elev 840 ft 41.03 °N, 90.28 °W | Updated 2 seconds ago

Partly Cloudy
Partly Cloudy
79.2 °F
Feels Like 82 °F
N
3.1
Wind Variable Wind from SW
Gusts 9.0 mph

Today
High -- | Low -- °F
--% Chance of Precip.
Yesterday
High -- | Low -- °F
Precip. -- in
6:28 AM 7:34 PM
Waxing Crescent, 43% visible
Pressure 29.83 in
Visibility 10.0 miles
Clouds Mostly Cloudy 3300 ft
Mostly Cloudy 4100 ft
Heat Index 82 °F
Dew Point 68 °F
Humidity 70%
Rainfall 0.18 in
Snow Depth Not available.
UV 4 out of 12
Pollen 5.60 out of 12
Ozone Good
Flu Activity Not available.
METAR KGBG 011955Z AUTO 22010G15KT 10SM BKN033 BKN041 27/20 A2983

More Conditions Fewer Conditions

Pressure 29.83 in
Visibility 10.0 miles
Clouds Mostly Cloudy 3300 ft
Mostly Cloudy 4100 ft
Heat Index 82 °F
Dew Point 68 °F
Humidity 70%
Rainfall 0.18 in
Snow Depth Not available.
UV 4 out of 12
Pollen 5.60 out of 12
Ozone Good
Flu Activity Not available.
METAR KGBG 011955Z AUTO 22010G15KT 10SM BKN033 BKN041 27/20 A2983

More Conditions Fewer Conditions

10-Day Weather Forecast

Almanac

Astronomy

Sep. 01, 2014 Rise Set
Actual Time 6:28 AM CDT 7:34 PM CDT
Civil Twilight 5:59 AM CDT 8:02 PM CDT
Nautical Twilight 5:26 AM CDT 8:36 PM CDT
Astronomical Twilight 4:50 AM CDT 9:11 PM CDT
Moon 1:17 PM CDT 11:31 PM CDT
Length of Visible Light 14h 02m
Length of Day
13h 06m
Tomorrow will be 2m 38s shorter.
Waxing Crescent, 43% of the Moon is Illuminated
Today
Waxing Crescent
Sep 2
First Quarter
Sep 8
Full
Sep 15
Last Quarter
Sep 24
New

Today's Extremes

State Highs State Lows

Community

WunderPhotos

Upload Photos

1,749,394 photos uploaded!

WunderBlogs® & News

Nearby

Air Quality

  Air Quality AQ Index Pollutant
Yesterday Good
OZONE
Yesterday Good
PM2.5
Current Good
OZONE
Monday Moderate
PM2.5
Tuesday Good
PM2.5

Snow Depth

Station Depth Elevation
No new snow has been reported.

Earthquake Activity

City Distance Mag. Time & Date
No recent earthquake activity has been reported nearby.
Minimum magnitude displayed is 2.5.

Coastal Water Temperatures

Place Temperature
No Stations Reporting

Nearby Weather Stations